createdAt,value
2023-05-21T00:01:03.980Z,14.21
2023-05-21T00:03:30.762Z,13.99
2023-05-21T00:05:57.535Z,13.89
2023-05-21T00:08:24.280Z,13.66
2023-05-21T00:10:50.992Z,13.70
2023-05-21T00:13:17.700Z,13.41
2023-05-21T00:15:44.406Z,13.34
2023-05-21T00:18:11.138Z,14.02
2023-05-21T00:20:37.867Z,13.60
2023-05-21T00:23:04.588Z,13.64
2023-05-21T00:25:31.374Z,12.29
2023-05-21T00:27:58.079Z,13.49
2023-05-21T00:30:24.749Z,13.61
2023-05-21T00:32:51.456Z,13.67
2023-05-21T00:35:18.179Z,14.35
2023-05-21T00:37:44.825Z,15.09
2023-05-21T00:40:11.553Z,13.68
2023-05-21T00:42:38.229Z,14.49
2023-05-21T00:45:05.838Z,15.21
2023-05-21T00:47:32.646Z,14.08
2023-05-21T00:49:59.363Z,14.40
2023-05-21T00:52:26.016Z,14.72
2023-05-21T00:54:52.650Z,14.76
2023-05-21T00:57:19.383Z,14.62
2023-05-21T00:59:46.816Z,13.48
2023-05-21T01:02:13.642Z,14.25
2023-05-21T01:04:40.440Z,14.37
2023-05-21T01:07:07.136Z,14.29
2023-05-21T01:09:33.800Z,14.89
2023-05-21T01:12:00.493Z,14.39
2023-05-21T01:14:29.268Z,14.67
2023-05-21T01:16:56.003Z,14.57
2023-05-21T01:19:22.783Z,14.49
2023-05-21T01:21:50.961Z,14.90
2023-05-21T01:24:17.609Z,15.12
2023-05-21T01:26:44.355Z,15.32
2023-05-21T01:29:11.044Z,17.63
2023-05-21T01:31:51.427Z,17.47
2023-05-21T01:34:18.618Z,17.41
2023-05-21T01:36:52.050Z,15.34
2023-05-21T01:39:22.843Z,16.64
2023-05-21T01:41:49.515Z,15.60
2023-05-21T01:44:16.228Z,16.02
2023-05-21T01:46:42.979Z,15.73
2023-05-21T01:49:09.728Z,16.11
2023-05-21T01:51:36.450Z,16.76
2023-05-21T01:54:03.208Z,17.01
2023-05-21T01:56:29.916Z,16.80
2023-05-21T01:58:56.593Z,17.00
2023-05-21T02:01:23.274Z,18.15
2023-05-21T02:03:50.022Z,17.67
2023-05-21T02:06:16.711Z,18.13
2023-05-21T02:08:43.391Z,18.03
2023-05-21T02:11:10.085Z,18.05
2023-05-21T02:13:36.730Z,17.82
2023-05-21T02:16:03.370Z,17.24
2023-05-21T02:18:30.059Z,17.09
2023-05-21T02:20:56.860Z,17.60
2023-05-21T02:23:23.582Z,17.72
2023-05-21T02:25:50.246Z,16.97
2023-05-21T02:28:16.952Z,16.97
2023-05-21T02:30:43.633Z,17.45
2023-05-21T02:33:10.340Z,17.90
2023-05-21T02:35:37.218Z,16.86
2023-05-21T02:38:04.078Z,17.05
2023-05-21T02:40:30.773Z,16.72
2023-05-21T02:42:57.438Z,17.10
2023-05-21T02:45:24.105Z,16.63
2023-05-21T02:47:50.772Z,16.52
2023-05-21T02:50:17.511Z,16.72
2023-05-21T02:52:44.165Z,17.80
2023-05-21T02:55:10.795Z,17.02
2023-05-21T02:57:37.428Z,17.28
2023-05-21T03:00:04.369Z,17.53
2023-05-21T03:02:31.145Z,16.52
2023-05-21T03:04:57.836Z,15.90
2023-05-21T03:07:24.529Z,15.59
2023-05-21T03:09:51.181Z,16.84
2023-05-21T03:12:17.868Z,17.09
2023-05-21T03:14:44.521Z,15.13
2023-05-21T03:17:12.327Z,15.39
2023-05-21T03:19:39.072Z,16.78
2023-05-21T03:22:05.776Z,17.21
2023-05-21T03:24:32.441Z,16.46
2023-05-21T03:26:59.600Z,16.68
2023-05-21T03:29:26.317Z,14.55
2023-05-21T03:31:53.201Z,15.50
2023-05-21T03:34:19.958Z,15.45
2023-05-21T03:36:47.152Z,16.18
2023-05-21T03:39:13.786Z,16.67
2023-05-21T03:41:40.511Z,15.29
2023-05-21T03:44:07.160Z,16.21
2023-05-21T03:46:33.898Z,15.31
2023-05-21T03:49:00.573Z,14.13
2023-05-21T03:51:27.227Z,14.28
2023-05-21T03:53:53.857Z,13.35
2023-05-21T03:56:20.532Z,12.92
2023-05-21T03:58:47.176Z,12.62
2023-05-21T04:01:13.877Z,12.45
2023-05-21T04:03:41.035Z,12.77
2023-05-21T04:06:08.725Z,12.39
2023-05-21T04:08:35.555Z,14.11
2023-05-21T04:11:02.340Z,14.65
2023-05-21T04:13:28.998Z,14.02
2023-05-21T04:15:55.691Z,13.79
2023-05-21T04:18:22.422Z,14.40
2023-05-21T04:20:49.199Z,14.41
2023-05-21T04:23:15.921Z,13.99
2023-05-21T04:25:42.581Z,14.15
2023-05-21T04:28:09.223Z,14.06
2023-05-21T04:30:35.964Z,14.45
2023-05-21T04:33:03.169Z,13.95
2023-05-21T04:35:30.020Z,14.62
2023-05-21T04:37:56.700Z,13.32
2023-05-21T04:40:23.350Z,14.94
2023-05-21T04:42:50.594Z,16.38
2023-05-21T04:45:17.240Z,16.32
2023-05-21T04:47:44.001Z,15.38
2023-05-21T04:50:10.705Z,16.22
2023-05-21T04:52:37.395Z,16.18
2023-05-21T04:55:04.293Z,15.65
2023-05-21T04:57:31.000Z,15.22
2023-05-21T04:59:57.722Z,14.06
2023-05-21T05:02:24.390Z,12.02
2023-05-21T05:04:51.232Z,11.24
2023-05-21T05:07:17.919Z,11.10
2023-05-21T05:09:44.559Z,10.86
2023-05-21T05:12:11.188Z,11.08
2023-05-21T05:14:37.820Z,10.73
2023-05-21T05:17:04.713Z,10.69
2023-05-21T05:19:31.416Z,10.98
2023-05-21T05:21:58.063Z,10.21
2023-05-21T05:24:24.732Z,10.36
2023-05-21T05:26:51.373Z,10.66
2023-05-21T05:29:19.230Z,11.48
2023-05-21T05:31:45.936Z,10.66
2023-05-21T05:34:12.648Z,10.15
2023-05-21T05:36:39.325Z,10.68
2023-05-21T05:39:06.018Z,11.68
2023-05-21T05:41:32.723Z,10.46
2023-05-21T05:43:59.415Z,10.28
2023-05-21T05:46:26.141Z,10.15
2023-05-21T05:48:52.812Z,10.35
2023-05-21T05:51:19.609Z,10.52
2023-05-21T05:53:47.501Z,10.53
2023-05-21T05:56:14.122Z,12.27
2023-05-21T05:58:40.819Z,13.38
2023-05-21T06:01:07.548Z,13.39
2023-05-21T06:03:34.367Z,11.29
2023-05-21T06:06:01.182Z,10.55
2023-05-21T06:08:27.897Z,9.89
2023-05-21T06:10:54.590Z,11.58
2023-05-21T06:13:21.250Z,11.53
2023-05-21T06:15:47.953Z,9.26
2023-05-21T06:18:14.628Z,10.04
2023-05-21T06:20:41.351Z,12.82
2023-05-21T06:23:07.992Z,12.57
2023-05-21T06:25:34.893Z,13.09
2023-05-21T06:28:01.752Z,14.02
2023-05-21T06:30:28.501Z,14.01
2023-05-21T06:32:55.300Z,14.38
2023-05-21T06:35:22.039Z,14.63
2023-05-21T06:37:48.737Z,14.53
2023-05-21T06:40:15.474Z,14.95
2023-05-21T06:42:42.180Z,15.51
2023-05-21T06:45:09.284Z,15.22
2023-05-21T06:47:35.981Z,16.09
2023-05-21T06:50:02.715Z,16.15
2023-05-21T06:52:29.552Z,15.93
2023-05-21T06:54:56.227Z,16.27
2023-05-21T06:57:22.873Z,16.27
2023-05-21T06:59:49.553Z,15.98
2023-05-21T07:02:16.238Z,15.68
2023-05-21T07:04:42.893Z,15.60
2023-05-21T07:07:09.536Z,16.28
2023-05-21T07:09:36.219Z,16.07
2023-05-21T07:12:02.870Z,16.59
2023-05-21T07:14:29.498Z,16.97
2023-05-21T07:16:56.207Z,17.57
2023-05-21T07:19:22.975Z,16.95
2023-05-21T07:21:49.732Z,18.02
2023-05-21T07:24:16.454Z,17.47
2023-05-21T07:26:43.156Z,17.55
2023-05-21T07:29:09.837Z,17.30
2023-05-21T07:31:36.628Z,18.02
2023-05-21T07:34:03.362Z,17.74
2023-05-21T07:36:30.074Z,17.67
2023-05-21T07:38:56.756Z,18.35
2023-05-21T07:41:23.430Z,20.00
2023-05-21T07:43:50.095Z,19.06
2023-05-21T07:46:16.886Z,19.45
2023-05-21T07:48:43.573Z,19.43
2023-05-21T07:51:10.732Z,18.78
2023-05-21T07:53:37.379Z,20.05
2023-05-21T07:56:04.112Z,21.83
2023-05-21T07:58:30.782Z,19.42
2023-05-21T08:00:57.488Z,18.85
2023-05-21T08:03:26.101Z,18.83
2023-05-21T08:05:52.842Z,20.62
2023-05-21T08:08:19.746Z,20.48
2023-05-21T08:10:46.517Z,20.81
2023-05-21T08:13:13.161Z,20.17
2023-05-21T08:15:39.838Z,20.59
2023-05-21T08:18:06.591Z,19.65
2023-05-21T08:20:33.430Z,18.64
2023-05-21T08:23:00.197Z,18.29
2023-05-21T08:25:27.230Z,18.63
2023-05-21T08:27:54.017Z,18.43
2023-05-21T08:30:20.798Z,19.11
2023-05-21T08:32:48.114Z,18.83
2023-05-21T08:35:14.855Z,19.33
2023-05-21T08:37:41.535Z,19.03
2023-05-21T08:40:08.646Z,19.22
2023-05-21T08:42:48.217Z,20.44
2023-05-21T08:45:17.211Z,19.84
2023-05-21T08:47:44.013Z,19.26
2023-05-21T08:50:12.025Z,19.80
2023-05-21T08:52:38.807Z,19.11
2023-05-21T08:55:05.880Z,18.45
2023-05-21T08:57:32.586Z,19.21
2023-05-21T08:59:59.630Z,19.79
2023-05-21T09:02:26.574Z,19.65
2023-05-21T09:04:53.564Z,19.48
2023-05-21T09:07:20.234Z,18.89
2023-05-21T09:09:56.124Z,19.17
2023-05-21T09:12:23.756Z,19.29
2023-05-21T09:14:50.400Z,19.43
2023-05-21T09:17:17.098Z,19.92
2023-05-21T09:20:25.440Z,19.58
2023-05-21T09:22:52.229Z,19.62
2023-05-21T09:25:26.422Z,18.76
2023-05-21T09:27:53.072Z,19.23
2023-05-21T09:30:23.573Z,19.22
2023-05-21T09:32:53.591Z,19.42
2023-05-21T09:35:20.272Z,19.44
2023-05-21T09:37:51.013Z,30.41
2023-05-21T09:40:18.876Z,22.92
2023-05-21T09:42:46.197Z,21.44
2023-05-21T09:45:12.968Z,18.48
2023-05-21T09:47:42.742Z,19.30
2023-05-21T09:50:10.930Z,19.31
2023-05-21T09:52:39.111Z,19.77
2023-05-21T09:55:07.045Z,19.71
2023-05-21T09:57:33.743Z,20.08
2023-05-21T10:00:00.438Z,19.84
2023-05-21T10:02:27.189Z,20.88
2023-05-21T10:04:53.996Z,20.61
2023-05-21T10:07:21.789Z,28.92
2023-05-21T10:09:48.458Z,27.52
2023-05-21T10:12:16.503Z,25.12
2023-05-21T10:14:43.198Z,23.96
2023-05-21T10:17:09.975Z,23.93
2023-05-21T10:19:36.674Z,20.72
2023-05-21T10:22:03.381Z,21.11
2023-05-21T10:24:30.085Z,21.15
2023-05-21T10:26:56.753Z,20.96
2023-05-21T10:29:23.397Z,21.16
2023-05-21T10:31:50.242Z,20.06
2023-05-21T10:34:16.938Z,21.08
2023-05-21T10:36:43.752Z,21.58
2023-05-21T10:39:10.520Z,20.76
2023-05-21T10:42:01.119Z,20.03
2023-05-21T10:44:27.735Z,20.96
2023-05-21T10:47:09.278Z,20.34
2023-05-21T10:50:00.767Z,20.49
2023-05-21T10:53:02.762Z,20.08
2023-05-21T10:55:43.028Z,19.30
2023-05-21T10:58:09.589Z,18.78
2023-05-21T11:00:36.445Z,18.64
2023-05-21T11:03:03.548Z,17.88
2023-05-21T11:05:52.301Z,17.73
2023-05-21T11:08:29.021Z,17.31
2023-05-21T11:10:56.178Z,17.06
2023-05-21T11:13:22.856Z,17.97
2023-05-21T11:15:58.250Z,18.32
2023-05-21T11:18:30.670Z,16.62
2023-05-21T11:21:07.049Z,16.64
2023-05-21T11:23:51.971Z,16.65
2023-05-21T11:26:19.027Z,18.31
2023-05-21T11:28:45.756Z,16.59
2023-05-21T11:31:25.004Z,16.76
2023-05-21T11:34:19.811Z,16.56
2023-05-21T11:36:47.171Z,16.77
2023-05-21T11:39:13.694Z,15.48
2023-05-21T11:41:53.598Z,15.74
2023-05-21T11:44:38.240Z,15.09
2023-05-21T11:47:05.009Z,15.76
2023-05-21T11:49:31.750Z,17.41
2023-05-21T11:52:01.382Z,18.53
2023-05-21T11:54:28.546Z,16.35
2023-05-21T11:56:55.243Z,15.92
2023-05-21T11:59:21.947Z,14.41
2023-05-21T12:01:48.616Z,14.83
2023-05-21T12:04:15.267Z,14.04
2023-05-21T12:06:44.982Z,13.50
2023-05-21T12:09:11.985Z,14.58
2023-05-21T12:11:38.828Z,14.59
2023-05-21T12:14:09.578Z,14.02
2023-05-21T12:16:36.391Z,12.47
2023-05-21T12:19:03.539Z,12.18
2023-05-21T12:21:30.324Z,12.13
2023-05-21T12:23:56.998Z,11.36
2023-05-21T12:26:24.305Z,11.11
2023-05-21T12:28:52.360Z,11.04
2023-05-21T12:31:19.947Z,10.72
2023-05-21T12:33:49.886Z,11.13
2023-05-21T12:36:23.228Z,10.69
2023-05-21T12:38:50.481Z,9.72
2023-05-21T12:41:17.600Z,10.32
2023-05-21T12:43:44.870Z,9.45
2023-05-21T12:46:12.003Z,10.29
2023-05-21T12:48:38.710Z,9.54
2023-05-21T12:51:05.416Z,9.28
2023-05-21T12:53:37.960Z,9.03
2023-05-21T12:56:11.359Z,10.06
2023-05-21T12:58:38.062Z,12.61
2023-05-21T13:01:07.598Z,11.19
2023-05-21T13:03:34.619Z,9.75
2023-05-21T13:06:01.836Z,9.60
2023-05-21T13:08:28.870Z,9.18
2023-05-21T13:10:55.672Z,9.43
2023-05-21T13:13:22.486Z,9.75
2023-05-21T13:15:49.237Z,9.63
2023-05-21T13:18:16.105Z,9.23
2023-05-21T13:20:42.902Z,9.26
2023-05-21T13:23:11.422Z,8.93
2023-05-21T13:25:38.587Z,8.80
2023-05-21T13:28:05.234Z,9.01
2023-05-21T13:30:32.120Z,8.93
2023-05-21T13:32:58.941Z,8.50
2023-05-21T13:35:25.750Z,8.33
2023-05-21T13:37:53.220Z,8.34
2023-05-21T13:40:19.970Z,7.27
2023-05-21T13:42:47.915Z,8.00
2023-05-21T13:45:15.939Z,7.84
2023-05-21T13:47:42.914Z,7.99
2023-05-21T13:50:09.872Z,9.36
2023-05-21T13:52:37.129Z,9.38
2023-05-21T13:55:04.032Z,9.59
2023-05-21T13:57:30.732Z,8.95
2023-05-21T13:59:57.922Z,8.87
2023-05-21T14:02:24.722Z,9.86
2023-05-21T14:04:51.551Z,11.88
2023-05-21T14:07:18.275Z,11.35
2023-05-21T14:09:45.030Z,10.66
2023-05-21T14:12:11.728Z,9.44
2023-05-21T14:14:38.473Z,10.35
2023-05-21T14:17:05.817Z,13.47
2023-05-21T14:19:32.632Z,13.84
2023-05-21T14:21:59.367Z,15.39
2023-05-21T14:24:26.260Z,14.59
2023-05-21T14:26:52.973Z,14.36
2023-05-21T14:29:19.693Z,15.20
2023-05-21T14:31:46.486Z,14.26
2023-05-21T14:34:13.211Z,13.05
2023-05-21T14:36:39.879Z,12.41
2023-05-21T14:39:06.527Z,13.01
2023-05-21T14:41:33.218Z,11.82
2023-05-21T14:43:59.886Z,11.25
2023-05-21T14:46:26.592Z,11.43
2023-05-21T14:48:53.277Z,9.40
2023-05-21T14:51:19.988Z,8.21
2023-05-21T14:53:46.733Z,8.24
2023-05-21T14:56:13.367Z,7.84
2023-05-21T14:58:40.115Z,7.38
2023-05-21T15:01:07.009Z,8.41
2023-05-21T15:03:33.894Z,9.54
2023-05-21T15:06:00.697Z,10.24
2023-05-21T15:08:27.414Z,9.74
2023-05-21T15:10:54.061Z,8.38
2023-05-21T15:13:20.720Z,7.95
2023-05-21T15:15:47.434Z,7.35
2023-05-21T15:18:14.224Z,7.48
2023-05-21T15:20:40.876Z,7.76
2023-05-21T15:23:15.864Z,7.09
2023-05-21T15:25:43.227Z,6.78
2023-05-21T15:28:09.877Z,6.67
2023-05-21T15:30:36.529Z,6.15
2023-05-21T15:33:03.211Z,6.09
2023-05-21T15:35:30.121Z,6.83
2023-05-21T15:37:56.928Z,7.25
2023-05-21T15:40:26.150Z,7.71
2023-05-21T15:42:53.659Z,7.42
2023-05-21T15:45:20.389Z,6.89
2023-05-21T15:47:47.300Z,6.94
2023-05-21T15:50:14.059Z,6.61
2023-05-21T15:52:41.552Z,6.33
2023-05-21T15:55:08.646Z,6.68
2023-05-21T15:57:35.323Z,6.47
2023-05-21T16:00:02.147Z,6.58
2023-05-21T16:02:28.999Z,6.32
2023-05-21T16:04:55.691Z,6.48
2023-05-21T16:07:23.267Z,6.58
2023-05-21T16:09:49.909Z,6.95
2023-05-21T16:12:16.644Z,6.34
2023-05-21T16:14:43.321Z,6.55
2023-05-21T16:17:10.170Z,6.35
2023-05-21T16:19:37.072Z,6.39
2023-05-21T16:22:03.990Z,5.90
2023-05-21T16:24:32.150Z,5.90
2023-05-21T16:26:58.846Z,6.01
2023-05-21T16:29:25.551Z,5.62
2023-05-21T16:31:52.416Z,5.71
2023-05-21T16:34:19.137Z,5.65
2023-05-21T16:36:46.071Z,5.93
2023-05-21T16:39:12.981Z,5.72
2023-05-21T16:41:39.717Z,5.93
2023-05-21T16:44:06.396Z,6.13
2023-05-21T16:46:33.245Z,6.10
2023-05-21T16:49:00.153Z,5.96
2023-05-21T16:51:26.842Z,5.84
2023-05-21T16:53:53.517Z,5.70
2023-05-21T16:56:20.359Z,6.16
2023-05-21T16:58:47.091Z,6.33
2023-05-21T17:01:13.893Z,6.73
2023-05-21T17:03:43.080Z,6.75
2023-05-21T17:06:10.179Z,7.16
2023-05-21T17:08:36.835Z,7.16
2023-05-21T17:11:03.608Z,6.78
2023-05-21T17:13:30.540Z,7.16
2023-05-21T17:15:57.286Z,8.69
2023-05-21T17:18:24.068Z,7.52
2023-05-21T17:20:50.759Z,6.86
2023-05-21T17:23:17.699Z,7.18
2023-05-21T17:25:44.406Z,7.87
2023-05-21T17:28:11.150Z,7.87
2023-05-21T17:30:37.879Z,7.38
2023-05-21T17:33:04.578Z,6.90
2023-05-21T17:35:31.258Z,6.34
2023-05-21T17:37:57.917Z,6.50
2023-05-21T17:40:24.959Z,6.94
2023-05-21T17:42:52.560Z,6.96
2023-05-21T17:45:21.216Z,6.97
2023-05-21T17:47:47.881Z,7.81
2023-05-21T17:50:14.895Z,6.73
2023-05-21T17:52:41.673Z,6.90
2023-05-21T17:55:08.874Z,6.24
2023-05-21T17:57:35.703Z,5.93
2023-05-21T18:00:03.699Z,6.09
2023-05-21T18:02:30.639Z,6.20
2023-05-21T18:04:57.761Z,6.66
2023-05-21T18:07:24.412Z,7.37
2023-05-21T18:09:51.235Z,8.12
2023-05-21T18:12:18.000Z,7.74
2023-05-21T18:14:44.735Z,6.24
2023-05-21T18:17:11.493Z,6.16
2023-05-21T18:19:38.219Z,6.49
2023-05-21T18:22:05.056Z,6.40
2023-05-21T18:24:31.819Z,6.34
2023-05-21T18:26:58.589Z,5.74
2023-05-21T18:29:25.271Z,5.34
2023-05-21T18:31:51.946Z,5.86
2023-05-21T18:34:18.892Z,5.83
2023-05-21T18:36:45.539Z,6.07
2023-05-21T18:39:12.185Z,6.02
2023-05-21T18:41:39.180Z,5.80
2023-05-21T18:44:06.050Z,5.86
2023-05-21T18:46:32.933Z,6.16
2023-05-21T18:48:59.648Z,5.97
2023-05-21T18:51:26.298Z,5.90
2023-05-21T18:53:53.217Z,6.61
2023-05-21T18:56:19.863Z,6.65
2023-05-21T18:58:46.504Z,7.71
2023-05-21T19:01:13.150Z,8.01
2023-05-21T19:03:39.798Z,7.38
2023-05-21T19:06:06.420Z,6.58
2023-05-21T19:08:33.395Z,7.01
2023-05-21T19:11:00.176Z,6.84
2023-05-21T19:13:26.823Z,7.07
2023-05-21T19:15:53.578Z,6.99
2023-05-21T19:18:20.226Z,6.89
2023-05-21T19:20:46.937Z,7.32
2023-05-21T19:23:13.611Z,7.27
2023-05-21T19:25:40.239Z,6.91
2023-05-21T19:28:06.937Z,6.60
2023-05-21T19:30:33.603Z,7.03
2023-05-21T19:33:00.361Z,7.09
2023-05-21T19:35:27.088Z,7.37
2023-05-21T19:37:53.827Z,7.77
2023-05-21T19:40:20.585Z,8.26
2023-05-21T19:42:47.349Z,7.76
2023-05-21T19:45:14.134Z,8.18
2023-05-21T19:47:41.072Z,7.45
2023-05-21T19:50:09.253Z,6.60
2023-05-21T19:52:36.909Z,7.31
2023-05-21T19:55:03.759Z,7.80
2023-05-21T19:57:33.767Z,7.73
2023-05-21T20:00:00.561Z,7.02
2023-05-21T20:02:27.271Z,8.33
2023-05-21T20:04:54.167Z,9.11
2023-05-21T20:07:20.865Z,8.78
2023-05-21T20:09:47.572Z,9.06
2023-05-21T20:12:14.434Z,9.57
2023-05-21T20:14:41.133Z,9.62
2023-05-21T20:17:08.190Z,9.62
2023-05-21T20:19:35.104Z,10.45
2023-05-21T20:22:01.876Z,10.28
2023-05-21T20:24:28.590Z,8.72
2023-05-21T20:26:55.310Z,8.11
2023-05-21T20:29:22.014Z,7.13
2023-05-21T20:31:48.940Z,6.51
2023-05-21T20:34:15.608Z,6.39
2023-05-21T20:36:42.316Z,7.12
2023-05-21T20:39:09.050Z,7.64
2023-05-21T20:41:35.778Z,8.87
2023-05-21T20:44:03.061Z,10.56
2023-05-21T20:46:29.969Z,12.61
2023-05-21T20:48:56.736Z,13.50
2023-05-21T20:51:23.530Z,13.22
2023-05-21T20:53:50.231Z,12.81
2023-05-21T20:56:21.775Z,13.03
2023-05-21T20:58:53.383Z,12.61
2023-05-21T21:01:20.140Z,12.82
2023-05-21T21:03:46.966Z,13.11
2023-05-21T21:06:14.244Z,10.53
2023-05-21T21:08:40.869Z,10.54
2023-05-21T21:11:08.253Z,8.24
2023-05-21T21:13:35.425Z,8.10
2023-05-21T21:16:02.642Z,9.38
2023-05-21T21:18:29.420Z,9.92
2023-05-21T21:20:56.078Z,9.72
2023-05-21T21:23:28.128Z,9.38
2023-05-21T21:25:54.820Z,9.26
2023-05-21T21:28:21.453Z,9.19
2023-05-21T21:30:48.076Z,9.61
2023-05-21T21:33:14.939Z,10.32
2023-05-21T21:35:41.685Z,9.17
2023-05-21T21:38:08.315Z,9.19
2023-05-21T21:40:34.945Z,9.02
2023-05-21T21:43:01.613Z,8.70
2023-05-21T21:45:28.300Z,8.45
2023-05-21T21:47:54.968Z,8.13
2023-05-21T21:50:21.662Z,7.89
2023-05-21T21:52:48.395Z,7.63
2023-05-21T21:55:15.254Z,8.16
2023-05-21T21:57:41.956Z,7.93
2023-05-21T22:00:09.033Z,7.81
2023-05-21T22:02:35.702Z,8.10
2023-05-21T22:05:02.539Z,7.63
2023-05-21T22:07:29.312Z,6.60
2023-05-21T22:09:56.006Z,5.36
2023-05-21T22:12:22.708Z,6.02
2023-05-21T22:14:49.445Z,5.96
2023-05-21T22:17:16.094Z,6.70
2023-05-21T22:19:42.714Z,7.20
2023-05-21T22:22:09.352Z,6.44
2023-05-21T22:24:36.281Z,5.74
2023-05-21T22:27:03.086Z,6.85
2023-05-21T22:29:29.732Z,6.33
2023-05-21T22:31:56.580Z,8.34
2023-05-21T22:34:23.269Z,11.54
2023-05-21T22:36:49.915Z,9.04
2023-05-21T22:39:17.263Z,17.38
2023-05-21T22:41:43.891Z,20.18
2023-05-21T22:44:10.542Z,19.46
2023-05-21T22:46:37.277Z,27.87
2023-05-21T22:49:04.079Z,31.98
2023-05-21T22:51:30.765Z,31.66
2023-05-21T22:53:57.408Z,17.89
2023-05-21T22:56:24.095Z,33.16
2023-05-21T22:58:50.734Z,10.99
2023-05-21T23:01:17.600Z,7.32
2023-05-21T23:03:44.360Z,13.07
2023-05-21T23:06:11.176Z,34.55
2023-05-21T23:08:37.855Z,29.49
2023-05-21T23:11:04.581Z,28.50
2023-05-21T23:13:31.288Z,34.47
2023-05-21T23:15:57.998Z,11.92
2023-05-21T23:18:25.495Z,10.60
2023-05-21T23:20:52.155Z,55.96
2023-05-21T23:23:18.800Z,18.51
2023-05-21T23:25:45.499Z,26.89
2023-05-21T23:28:12.206Z,23.05
2023-05-21T23:30:39.172Z,8.78
2023-05-21T23:33:06.134Z,8.31
2023-05-21T23:35:32.910Z,7.67
2023-05-21T23:37:59.582Z,8.34
2023-05-21T23:40:26.226Z,8.15
2023-05-21T23:42:52.872Z,14.66
2023-05-21T23:45:19.703Z,25.75
2023-05-21T23:47:46.457Z,18.07
2023-05-21T23:50:13.161Z,9.00
2023-05-21T23:52:39.837Z,7.84
2023-05-21T23:55:07.387Z,7.70
2023-05-21T23:57:34.055Z,7.50
